Time;durP1;ratioP1;P1;durP2;ratioP2;P2;SDS_P1;SDS_P2;PMS_P1;PMS_P2;Temp;Humidity;BMP_temperature;BMP_pressure;BME280_temperature;BME280_humidity;BME280_pressure;Samples;Min_cycle;Max_cycle;Signal;HPM_P1;HPM_P2
2021/09/09 00:02:10;;;;;;;10.32;7.32;;;17.60;99.90;;;;;;5073731;28;20583;-62
2021/09/09 00:04:36;;;;;;;11.77;7.30;;;17.60;99.90;;;;;;5073668;28;20213;-62
2021/09/09 00:07:04;;;;;;;8.98;7.00;;;17.60;99.90;;;;;;5073709;28;20251;-62
2021/09/09 00:09:31;;;;;;;11.77;7.70;;;17.70;99.90;;;;;;5073600;28;20231;-63
2021/09/09 00:11:57;;;;;;;8.88;7.07;;;17.70;99.90;;;;;;5073407;28;20208;-62
2021/09/09 00:14:24;;;;;;;10.30;7.57;;;17.70;99.90;;;;;;5073355;28;20204;-62
2021/09/09 00:16:52;;;;;;;9.95;7.90;;;17.80;99.90;;;;;;5073191;28;20737;-61
2021/09/09 00:19:20;;;;;;;9.32;7.30;;;17.80;99.90;;;;;;5073199;28;20228;-62
2021/09/09 00:21:47;;;;;;;9.18;7.05;;;17.90;99.90;;;;;;5073302;28;20213;-61
2021/09/09 00:24:14;;;;;;;11.18;7.45;;;17.90;99.90;;;;;;5073071;28;20283;-61
2021/09/09 00:26:41;;;;;;;8.40;7.57;;;18.00;99.90;;;;;;5073274;28;20209;-61
2021/09/09 00:29:08;;;;;;;10.00;7.10;;;18.00;99.90;;;;;;5072675;28;20239;-62
2021/09/09 00:31:34;;;;;;;9.70;7.82;;;18.00;99.90;;;;;;5073048;28;20672;-62
2021/09/09 00:34:01;;;;;;;8.75;7.25;;;18.00;99.90;;;;;;5073434;28;20214;-62
2021/09/09 00:36:29;;;;;;;12.10;8.13;;;18.00;99.90;;;;;;5073443;28;20223;-62
2021/09/09 00:38:56;;;;;;;10.20;8.20;;;18.00;99.90;;;;;;5073054;28;20712;-62
2021/09/09 00:41:23;;;;;;;11.18;8.95;;;18.00;99.90;;;;;;5073303;28;20628;-62
2021/09/09 00:43:50;;;;;;;12.05;8.25;;;18.10;99.90;;;;;;5073416;28;20308;-62
2021/09/09 00:46:22;;;;;;;10.05;7.25;;;18.00;99.90;;;;;;5073227;28;20235;-62
2021/09/09 00:48:49;;;;;;;7.65;6.85;;;18.00;99.90;;;;;;5071854;28;20297;-61
2021/09/09 00:51:16;;;;;;;8.68;7.40;;;18.10;99.90;;;;;;5073179;28;20208;-61
2021/09/09 00:53:45;;;;;;;8.85;7.22;;;18.10;99.90;;;;;;5072713;28;20700;-62
2021/09/09 00:56:12;;;;;;;10.35;7.28;;;18.00;99.90;;;;;;5072597;28;20201;-62
2021/09/09 00:58:42;;;;;;;9.00;7.38;;;18.00;99.90;;;;;;5072511;28;20254;-62
2021/09/09 01:01:09;;;;;;;8.35;7.10;;;17.80;99.90;;;;;;5072663;28;20334;-62
2021/09/09 01:03:36;;;;;;;10.05;7.03;;;17.90;99.90;;;;;;5072318;28;20254;-62
2021/09/09 01:06:03;;;;;;;11.38;6.95;;;17.80;99.90;;;;;;5072344;28;20744;-62
2021/09/09 01:08:30;;;;;;;10.20;7.13;;;17.90;99.90;;;;;;5072166;28;20239;-62
2021/09/09 01:10:59;;;;;;;7.97;6.70;;;17.90;99.90;;;;;;5072380;28;20225;-62
2021/09/09 01:13:26;;;;;;;9.27;6.80;;;18.00;99.90;;;;;;5072408;28;20211;-62
2021/09/09 01:15:53;;;;;;;15.07;7.35;;;18.00;99.90;;;;;;5073074;28;20246;-61
2021/09/09 01:18:20;;;;;;;9.25;7.32;;;17.90;99.90;;;;;;5071987;28;20221;-62
2021/09/09 01:20:48;;;;;;;7.78;6.97;;;17.90;99.90;;;;;;5071662;28;20225;-62
2021/09/09 01:23:15;;;;;;;8.63;6.72;;;17.80;99.90;;;;;;5072178;28;20209;-62
2021/09/09 01:25:43;;;;;;;9.70;7.32;;;17.90;99.90;;;;;;5072372;28;20615;-62
2021/09/09 01:28:10;;;;;;;8.05;6.82;;;17.90;99.90;;;;;;5072021;28;20204;-62
2021/09/09 01:30:38;;;;;;;10.57;7.72;;;17.90;99.90;;;;;;5071979;28;20236;-62
2021/09/09 01:33:05;;;;;;;10.50;7.93;;;17.90;99.90;;;;;;5072179;28;20233;-62
2021/09/09 01:35:32;;;;;;;8.48;6.95;;;17.90;99.90;;;;;;5071914;28;20270;-62
2021/09/09 01:37:58;;;;;;;9.63;7.72;;;17.80;99.90;;;;;;5071572;28;20229;-62
2021/09/09 01:40:29;;;;;;;8.48;7.18;;;17.60;99.90;;;;;;5071885;28;20316;-61
2021/09/09 01:42:58;;;;;;;7.78;6.93;;;17.60;99.90;;;;;;5071730;28;20232;-62
2021/09/09 01:45:25;;;;;;;7.82;7.03;;;17.60;99.90;;;;;;5071487;28;20204;-62
2021/09/09 01:47:51;;;;;;;7.45;6.75;;;17.60;99.90;;;;;;5071246;28;20209;-62
2021/09/09 01:50:18;;;;;;;8.32;7.22;;;17.60;99.90;;;;;;5071113;28;20225;-62
2021/09/09 01:52:45;;;;;;;9.80;7.85;;;17.60;99.90;;;;;;5071569;28;20212;-62
2021/09/09 01:55:12;;;;;;;9.10;7.65;;;17.70;99.90;;;;;;5071247;28;20211;-61
2021/09/09 01:57:39;;;;;;;10.68;7.60;;;17.60;99.90;;;;;;5071551;28;20622;-62
2021/09/09 02:00:08;;;;;;;9.57;7.65;;;17.50;99.90;;;;;;5071186;28;20232;-62
2021/09/09 02:02:35;;;;;;;8.52;7.72;;;17.50;99.90;;;;;;5071014;28;20208;-62
2021/09/09 02:05:02;;;;;;;9.40;7.90;;;17.50;99.90;;;;;;5070871;28;20209;-62
2021/09/09 02:07:28;;;;;;;11.35;8.38;;;17.50;99.90;;;;;;5070978;28;20715;-62
2021/09/09 02:09:55;;;;;;;9.15;7.40;;;17.50;99.90;;;;;;5070840;28;20231;-62
2021/09/09 02:12:22;;;;;;;8.80;7.90;;;17.50;99.90;;;;;;5070926;28;20211;-62
2021/09/09 02:14:48;;;;;;;10.18;8.10;;;17.50;99.90;;;;;;5070947;28;20582;-62
2021/09/09 02:17:16;;;;;;;8.80;7.90;;;17.50;99.90;;;;;;5070916;28;20578;-62
2021/09/09 02:19:43;;;;;;;9.77;7.97;;;17.50;99.90;;;;;;5070839;28;20229;-62
2021/09/09 02:22:10;;;;;;;9.15;7.60;;;17.40;99.90;;;;;;5071218;28;20212;-63
2021/09/09 02:24:37;;;;;;;8.02;7.05;;;17.50;99.90;;;;;;5070843;28;20204;-62
2021/09/09 02:27:04;;;;;;;9.05;8.02;;;17.50;99.90;;;;;;5070821;28;20216;-61
2021/09/09 02:29:30;;;;;;;8.55;7.30;;;17.50;99.90;;;;;;5070451;28;20727;-62
2021/09/09 02:31:57;;;;;;;10.00;7.85;;;17.50;99.90;;;;;;5070896;28;20209;-62
2021/09/09 02:34:25;;;;;;;9.15;8.25;;;17.50;99.90;;;;;;5070754;28;20213;-62
2021/09/09 02:36:52;;;;;;;9.38;8.05;;;17.50;99.90;;;;;;5070611;28;20193;-62
2021/09/09 02:39:18;;;;;;;9.68;8.52;;;17.50;99.90;;;;;;5070535;28;20236;-62
2021/09/09 02:41:45;;;;;;;9.15;7.93;;;17.40;99.90;;;;;;5070728;28;20239;-62
2021/09/09 02:44:12;;;;;;;10.70;8.57;;;17.30;99.90;;;;;;5070459;28;20204;-62
2021/09/09 02:46:38;;;;;;;11.68;8.15;;;17.30;99.90;;;;;;5070616;28;20209;-61
2021/09/09 02:49:05;;;;;;;10.90;8.40;;;17.30;99.90;;;;;;5070671;28;20225;-62
2021/09/09 02:51:33;;;;;;;12.02;8.35;;;17.30;99.90;;;;;;5070824;28;20209;-62
2021/09/09 02:54:00;;;;;;;11.68;8.65;;;17.20;99.90;;;;;;5070643;28;20310;-62
2021/09/09 02:56:26;;;;;;;10.23;7.90;;;17.20;99.90;;;;;;5070996;28;20204;-63
2021/09/09 02:58:53;;;;;;;11.05;9.25;;;17.20;99.90;;;;;;5070440;28;20223;-62
2021/09/09 03:01:20;;;;;;;9.95;8.43;;;17.20;99.90;;;;;;5071261;28;20212;-62
2021/09/09 03:03:46;;;;;;;10.63;8.73;;;17.20;99.90;;;;;;5070372;28;20681;-62
2021/09/09 03:06:13;;;;;;;10.63;8.98;;;17.20;99.90;;;;;;5070674;28;20559;-62
2021/09/09 03:08:41;;;;;;;9.47;8.47;;;17.20;99.90;;;;;;5070323;28;20643;-62
2021/09/09 03:11:08;;;;;;;10.48;9.35;;;17.20;99.90;;;;;;5072509;28;20208;-62
2021/09/09 03:13:34;;;;;;;14.35;9.02;;;17.20;99.90;;;;;;5074115;28;20668;-62
2021/09/09 03:16:01;;;;;;;11.00;9.02;;;17.20;99.90;;;;;;5074486;28;20205;-62
2021/09/09 03:18:28;;;;;;;14.57;9.25;;;17.20;99.90;;;;;;5074098;28;20225;-62
2021/09/09 03:20:55;;;;;;;10.93;8.70;;;17.10;99.90;;;;;;5074242;28;20311;-62
2021/09/09 03:23:23;;;;;;;9.85;8.85;;;17.10;99.90;;;;;;5074553;28;20201;-62
2021/09/09 03:25:51;;;;;;;11.40;10.02;;;17.10;99.90;;;;;;5074264;28;20212;-62
2021/09/09 03:28:17;;;;;;;9.47;8.47;;;17.10;99.90;;;;;;5073802;28;20693;-62
2021/09/09 03:30:44;;;;;;;9.85;8.18;;;17.10;99.90;;;;;;5087860;22;20225;-57
2021/09/09 03:33:11;;;;;;;9.68;8.77;;;17.10;99.90;;;;;;5074394;28;20620;-57
2021/09/09 03:35:37;;;;;;;10.40;8.65;;;17.10;99.90;;;;;;5074445;28;20212;-58
2021/09/09 03:38:04;;;;;;;11.10;8.40;;;17.10;99.90;;;;;;5074230;28;20225;-57
2021/09/09 03:40:32;;;;;;;10.32;8.80;;;17.10;99.90;;;;;;5073989;28;20229;-57
2021/09/09 03:43:00;;;;;;;11.65;8.85;;;17.10;99.90;;;;;;5074007;28;20664;-56
2021/09/09 03:45:26;;;;;;;10.93;8.50;;;17.00;99.90;;;;;;5073972;28;20581;-57
2021/09/09 03:47:53;;;;;;;10.80;8.90;;;17.00;99.90;;;;;;5073978;28;20204;-55
2021/09/09 03:50:20;;;;;;;11.75;9.23;;;16.90;99.90;;;;;;5073989;28;20220;-58
2021/09/09 03:52:46;;;;;;;10.73;8.80;;;16.90;99.90;;;;;;5073883;28;20680;-55
2021/09/09 03:55:13;;;;;;;10.18;8.80;;;16.80;99.90;;;;;;5073754;28;20212;-56
2021/09/09 03:57:40;;;;;;;11.73;9.13;;;16.80;99.90;;;;;;5073961;28;20209;-58
2021/09/09 04:00:09;;;;;;;13.43;8.93;;;16.80;99.90;;;;;;5073658;28;20664;-59
2021/09/09 04:02:36;;;;;;;12.30;8.83;;;16.80;99.90;;;;;;5073793;28;20688;-58
2021/09/09 04:05:03;;;;;;;11.03;9.40;;;16.90;99.90;;;;;;5073880;28;20212;-59
2021/09/09 04:07:30;;;;;;;11.40;8.70;;;16.90;99.90;;;;;;5073768;28;20491;-58
2021/09/09 04:09:56;;;;;;;11.35;9.32;;;16.90;99.90;;;;;;5073280;28;20221;-59
2021/09/09 04:12:23;;;;;;;12.52;9.55;;;17.00;99.90;;;;;;5073417;28;20205;-59
2021/09/09 04:14:50;;;;;;;10.88;9.38;;;17.00;99.90;;;;;;5073329;28;20204;-58
2021/09/09 04:17:18;;;;;;;11.05;9.43;;;17.00;99.90;;;;;;5073125;28;20707;-56
2021/09/09 04:19:45;;;;;;;11.17;8.87;;;17.00;99.90;;;;;;5072885;28;20598;-56
2021/09/09 04:22:11;;;;;;;14.02;9.35;;;16.90;99.90;;;;;;5072533;28;20205;-55
2021/09/09 04:24:38;;;;;;;10.48;9.38;;;17.00;99.90;;;;;;5073235;28;20220;-58
2021/09/09 04:27:05;;;;;;;11.90;9.48;;;17.00;99.90;;;;;;5073142;28;20205;-57
2021/09/09 04:29:32;;;;;;;11.55;9.13;;;17.10;99.90;;;;;;5072889;28;20229;-58
2021/09/09 04:31:59;;;;;;;13.85;9.20;;;17.00;99.90;;;;;;5073022;28;20258;-58
2021/09/09 04:34:27;;;;;;;12.25;9.18;;;17.10;99.90;;;;;;5072868;28;20204;-56
2021/09/09 04:36:53;;;;;;;10.53;9.07;;;17.10;99.90;;;;;;5072730;28;20205;-56
2021/09/09 04:39:20;;;;;;;10.40;8.77;;;17.00;99.90;;;;;;5072425;28;20236;-55
2021/09/09 04:41:47;;;;;;;11.60;10.00;;;17.10;99.90;;;;;;5072836;28;20209;-57
2021/09/09 04:44:13;;;;;;;10.48;9.38;;;17.00;99.90;;;;;;5072558;28;20629;-58
2021/09/09 04:46:40;;;;;;;10.37;9.30;;;17.10;99.90;;;;;;5072216;28;20208;-59
2021/09/09 04:49:07;;;;;;;12.00;9.68;;;17.10;99.90;;;;;;5072397;28;20300;-56
2021/09/09 04:51:35;;;;;;;15.27;9.15;;;17.10;99.90;;;;;;5072555;28;20205;-56
2021/09/09 04:54:01;;;;;;;10.85;9.60;;;17.20;99.90;;;;;;5072401;28;20213;-55
2021/09/09 04:56:28;;;;;;;11.47;8.87;;;17.10;99.90;;;;;;5072698;28;20668;-54
2021/09/09 04:58:55;;;;;;;10.68;9.57;;;17.10;99.90;;;;;;5072407;28;20225;-59
2021/09/09 05:01:21;;;;;;;13.93;8.75;;;17.00;99.90;;;;;;5072312;28;20209;-57
2021/09/09 05:03:48;;;;;;;12.88;9.38;;;17.00;99.90;;;;;;5072257;28;20200;-55
2021/09/09 05:06:15;;;;;;;11.50;9.82;;;16.90;99.90;;;;;;5072501;28;20479;-59
2021/09/09 05:08:43;;;;;;;16.27;10.25;;;17.00;99.90;;;;;;5072287;28;20208;-55
2021/09/09 05:11:10;;;;;;;12.88;9.48;;;17.10;99.90;;;;;;5072479;28;20225;-55
2021/09/09 05:13:37;;;;;;;11.98;9.18;;;17.20;99.90;;;;;;5072275;28;20216;-59
2021/09/09 05:16:04;;;;;;;10.55;9.25;;;17.30;99.90;;;;;;5071930;28;20212;-55
2021/09/09 05:18:31;;;;;;;11.30;9.48;;;17.40;99.90;;;;;;5071928;28;20221;-57
2021/09/09 05:20:58;;;;;;;10.10;9.07;;;17.40;99.90;;;;;;5072129;28;20228;-57
2021/09/09 05:23:24;;;;;;;12.55;8.98;;;17.50;99.90;;;;;;5072129;28;20205;-54
2021/09/09 05:25:52;;;;;;;16.83;10.05;;;17.60;99.90;;;;;;5072276;28;20421;-57
2021/09/09 05:28:19;;;;;;;16.67;10.02;;;17.70;99.90;;;;;;5071802;28;20212;-55
2021/09/09 05:30:46;;;;;;;11.13;9.85;;;17.90;99.90;;;;;;5071721;28;20232;-56
2021/09/09 05:33:13;;;;;;;14.45;9.05;;;17.90;99.90;;;;;;5071562;28;20205;-54
2021/09/09 05:35:41;;;;;;;12.95;9.07;;;18.00;99.90;;;;;;5071891;28;20212;-60
2021/09/09 05:38:08;;;;;;;9.63;8.57;;;18.00;99.90;;;;;;5071655;28;20300;-59
2021/09/09 05:40:34;;;;;;;15.38;9.25;;;18.20;99.90;;;;;;5071585;28;20233;-56
2021/09/09 05:43:02;;;;;;;12.32;9.05;;;18.30;99.90;;;;;;5071423;28;20578;-56
2021/09/09 05:45:30;;;;;;;11.38;9.23;;;18.40;99.90;;;;;;5071280;28;20687;-56
2021/09/09 05:47:57;;;;;;;12.80;8.98;;;18.50;99.90;;;;;;5071480;28;20212;-55
2021/09/09 05:50:24;;;;;;;12.73;9.40;;;18.80;99.90;;;;;;5071690;28;20229;-58
2021/09/09 05:52:51;;;;;;;12.07;8.43;;;19.60;99.90;;;;;;5071551;28;20205;-58
2021/09/09 05:55:17;;;;;;;10.13;8.02;;;20.60;99.90;;;;;;5071289;28;20201;-56
2021/09/09 05:57:44;;;;;;;10.88;7.75;;;21.60;99.90;;;;;;5071153;28;20216;-56
2021/09/09 06:00:13;;;;;;;11.93;8.10;;;22.60;99.90;;;;;;5070912;28;20232;-58
2021/09/09 06:02:44;;;;;;;11.70;7.63;;;23.50;99.90;;;;;;5071307;28;20209;-55
2021/09/09 06:05:12;;;;;;;9.60;7.35;;;24.30;99.90;;;;;;5071156;28;20738;-57
2021/09/09 06:07:39;;;;;;;10.52;7.68;;;25.10;99.90;;;;;;5071146;28;20668;-59
2021/09/09 06:10:08;;;;;;;8.40;6.63;;;25.90;99.90;;;;;;5071321;28;20225;-59
2021/09/09 06:12:35;;;;;;;10.20;7.70;;;26.30;99.90;;;;;;5071150;28;20208;-54
2021/09/09 06:15:03;;;;;;;10.90;7.60;;;26.00;99.90;;;;;;5070932;28;20213;-55
2021/09/09 06:17:32;;;;;;;10.43;7.00;;;25.50;99.90;;;;;;5071277;28;20649;-58
2021/09/09 06:19:59;;;;;;;7.85;7.05;;;25.10;99.90;;;;;;5070913;28;20225;-55
2021/09/09 06:22:25;;;;;;;8.55;7.00;;;24.60;99.90;;;;;;5071116;28;20251;-54
2021/09/09 06:24:52;;;;;;;9.20;6.78;;;24.60;99.90;;;;;;5071069;28;20209;-56
2021/09/09 06:27:19;;;;;;;8.55;7.07;;;25.20;99.90;;;;;;5070876;28;20208;-56
2021/09/09 06:29:45;;;;;;;7.97;6.95;;;25.50;99.90;;;;;;5071020;28;20237;-56
2021/09/09 06:32:12;;;;;;;11.55;6.72;;;25.80;99.90;;;;;;5071207;28;20200;-55
2021/09/09 06:34:40;;;;;;;9.15;6.88;;;26.60;99.90;;;;;;5071145;28;20216;-60
2021/09/09 06:37:07;;;;;;;12.38;6.97;;;27.50;99.90;;;;;;5071336;28;20606;-60
2021/09/09 06:39:33;;;;;;;14.27;11.95;;;28.30;99.90;;;;;;5070890;28;20236;-56
2021/09/09 06:42:00;;;;;;;6.72;6.03;;;28.80;99.90;;;;;;5070741;28;20695;-55
2021/09/09 06:44:27;;;;;;;9.57;6.95;;;28.70;99.90;;;;;;5070449;28;20209;-61
2021/09/09 06:46:53;;;;;;;9.20;6.50;;;28.30;99.90;;;;;;5070339;28;20212;-56
2021/09/09 06:49:20;;;;;;;8.85;7.07;;;27.70;99.90;;;;;;5071116;28;20282;-55
2021/09/09 06:51:48;;;;;;;16.83;10.30;;;26.80;99.90;;;;;;5072040;28;20200;-55
2021/09/09 06:54:16;;;;;;;11.85;8.77;;;26.10;99.90;;;;;;5070547;28;20566;-55
2021/09/09 06:56:42;;;;;;;10.80;7.75;;;25.80;99.90;;;;;;5070680;28;20211;-55
2021/09/09 06:59:09;;;;;;;9.07;7.20;;;25.70;99.90;;;;;;5070547;28;20598;-59
2021/09/09 07:01:36;;;;;;;10.27;7.38;;;25.50;99.90;;;;;;5070564;28;20279;-56
2021/09/09 07:04:03;;;;;;;10.38;6.75;;;25.30;99.90;;;;;;5070505;28;20212;-55
2021/09/09 07:06:29;;;;;;;8.20;6.72;;;25.10;99.90;;;;;;5071215;28;20378;-57
2021/09/09 07:08:57;;;;;;;14.18;6.93;;;25.10;99.90;;;;;;5070231;28;20291;-56
2021/09/09 07:11:24;;;;;;;7.43;5.97;;;25.90;99.90;;;;;;5070456;28;20213;-56
2021/09/09 07:13:50;;;;;;;8.45;5.95;;;26.40;99.90;;;;;;5070656;28;20643;-55
2021/09/09 07:16:17;;;;;;;7.30;5.70;;;27.40;99.90;;;;;;5070707;28;20628;-58
2021/09/09 07:18:44;;;;;;;6.63;5.38;;;28.90;99.90;;;;;;5070534;28;20690;-58
2021/09/09 07:21:10;;;;;;;9.00;6.13;;;30.50;99.90;;;;;;5070403;28;20252;-56
2021/09/09 07:23:37;;;;;;;9.60;4.80;;;31.90;97.20;;;;;;5070019;28;20830;-54
2021/09/09 07:26:05;;;;;;;6.18;5.35;;;33.00;93.00;;;;;;5070250;28;20216;-54
2021/09/09 07:28:32;;;;;;;6.60;5.30;;;33.80;90.00;;;;;;5070466;28;20205;-56
2021/09/09 07:30:59;;;;;;;7.18;5.03;;;34.20;85.30;;;;;;5070410;28;20236;-56
2021/09/09 07:33:25;;;;;;;6.18;5.05;;;34.70;79.00;;;;;;5070236;28;20205;-57
2021/09/09 07:35:52;;;;;;;6.38;4.70;;;34.00;78.60;;;;;;5070254;28;20695;-54
2021/09/09 07:38:19;;;;;;;6.38;5.55;;;33.70;79.10;;;;;;5070441;28;20216;-54
2021/09/09 07:40:45;;;;;;;6.75;5.38;;;33.80;78.40;;;;;;5070254;28;20286;-55
2021/09/09 07:43:14;;;;;;;5.93;4.68;;;34.50;77.60;;;;;;5070092;28;20669;-55
2021/09/09 07:45:41;;;;;;;5.43;4.93;;;35.10;74.00;;;;;;5070003;28;20212;-54
2021/09/09 07:48:07;;;;;;;4.97;4.47;;;35.50;69.80;;;;;;5070623;28;20254;-55
2021/09/09 07:50:34;;;;;;;6.32;4.82;;;35.30;68.60;;;;;;5070356;28;20240;-57
2021/09/09 07:53:01;;;;;;;7.20;5.10;;;34.70;69.40;;;;;;5069973;28;20208;-55
2021/09/09 07:55:28;;;;;;;6.55;5.00;;;34.00;69.60;;;;;;5070387;28;20205;-55
2021/09/09 07:57:55;;;;;;;7.70;4.70;;;33.80;70.50;;;;;;5073006;28;20205;-59
2021/09/09 08:00:23;;;;;;;6.70;4.63;;;33.90;70.20;;;;;;5073672;28;20704;-55
2021/09/09 08:02:49;;;;;;;5.97;4.72;;;33.90;70.50;;;;;;5073929;28;20208;-56
2021/09/09 08:05:17;;;;;;;6.30;4.88;;;33.50;71.00;;;;;;5073336;28;20204;-55
2021/09/09 08:07:44;;;;;;;5.90;4.72;;;32.70;72.60;;;;;;5073552;28;20209;-55
2021/09/09 08:10:13;;;;;;;6.68;4.47;;;31.70;74.80;;;;;;5073270;28;20275;-59
2021/09/09 08:12:41;;;;;;;6.18;5.00;;;30.90;77.70;;;;;;5073680;28;20205;-55
2021/09/09 08:15:08;;;;;;;7.40;5.13;;;30.20;79.80;;;;;;5073126;28;20680;-57
2021/09/09 08:17:37;;;;;;;9.07;6.38;;;29.50;82.20;;;;;;5073292;28;20700;-62
2021/09/09 08:20:05;;;;;;;7.20;5.60;;;29.00;84.00;;;;;;5073584;28;20228;-64
2021/09/09 08:22:31;;;;;;;7.85;5.15;;;28.50;86.10;;;;;;5074018;28;20645;-63
2021/09/09 08:24:58;;;;;;;6.70;6.10;;;28.20;88.40;;;;;;5073664;28;20216;-63
2021/09/09 08:27:25;;;;;;;9.20;6.20;;;27.80;90.00;;;;;;5073916;28;20258;-63
2021/09/09 08:29:51;;;;;;;6.28;5.32;;;27.50;90.60;;;;;;5074376;28;20235;-64
2021/09/09 08:32:18;;;;;;;7.30;5.63;;;27.30;91.50;;;;;;5073837;28;20286;-63
2021/09/09 08:34:46;;;;;;;7.88;5.35;;;27.20;91.80;;;;;;5074016;28;20207;-63
2021/09/09 08:37:13;;;;;;;7.78;5.47;;;27.10;92.30;;;;;;5074077;28;20213;-63
2021/09/09 08:39:40;;;;;;;7.03;5.30;;;27.10;92.60;;;;;;5073889;28;20225;-63
2021/09/09 08:42:06;;;;;;;7.25;5.45;;;27.10;93.00;;;;;;5073898;28;20668;-64
2021/09/09 08:44:33;;;;;;;6.93;5.50;;;27.00;93.40;;;;;;5073702;28;20205;-63
2021/09/09 08:47:01;;;;;;;6.70;5.38;;;27.00;93.30;;;;;;5073670;28;20287;-63
2021/09/09 08:49:28;;;;;;;7.05;5.47;;;27.00;93.20;;;;;;5073351;28;20239;-63
2021/09/09 08:51:58;;;;;;;6.45;5.20;;;27.00;93.60;;;;;;5073725;28;20211;-63
2021/09/09 08:54:26;;;;;;;8.40;5.40;;;27.00;93.70;;;;;;5073236;28;20303;-63
2021/09/09 08:56:53;;;;;;;7.78;5.40;;;27.00;94.10;;;;;;5073375;28;20263;-63
2021/09/09 08:59:20;;;;;;;7.07;5.03;;;27.00;94.40;;;;;;5073141;28;20225;-64
2021/09/09 09:02:01;;;;;;;6.20;5.15;;;27.00;94.40;;;;;;5073500;28;20560;-63
2021/09/09 09:04:28;;;;;;;10.63;5.40;;;26.90;94.30;;;;;;5073535;28;20220;-63
2021/09/09 09:06:57;;;;;;;9.98;5.38;;;26.80;94.60;;;;;;5074401;28;20216;-63
2021/09/09 09:09:24;;;;;;;10.55;5.13;;;26.90;95.00;;;;;;5072665;28;20224;-63
2021/09/09 09:11:52;;;;;;;8.40;5.25;;;26.90;94.80;;;;;;5074041;28;20578;-63
2021/09/09 09:14:22;;;;;;;7.43;5.45;;;26.90;94.60;;;;;;5075322;28;20304;-63
2021/09/09 09:16:52;;;;;;;7.25;5.13;;;26.90;94.60;;;;;;5073840;28;20209;-63
2021/09/09 09:19:21;;;;;;;8.35;5.10;;;26.90;95.00;;;;;;5073996;28;20232;-63
2021/09/09 09:21:50;;;;;;;12.65;5.43;;;26.90;94.80;;;;;;5073762;28;20257;-63
2021/09/09 09:24:20;;;;;;;8.23;5.30;;;27.00;95.20;;;;;;5073247;28;20209;-63
2021/09/09 09:27:07;;;;;;;6.97;5.03;;;27.10;95.10;;;;;;5072895;28;20189;-63
2021/09/09 09:29:34;;;;;;;6.50;4.78;;;27.20;95.10;;;;;;5097389;22;20218;-64
2021/09/09 09:32:12;;;;;;;8.45;5.30;;;27.30;95.00;;;;;;5072685;28;20204;-64
2021/09/09 09:34:39;;;;;;;8.00;5.32;;;27.40;95.10;;;;;;5072476;28;20205;-64
2021/09/09 09:37:06;;;;;;;5.97;5.25;;;27.50;94.50;;;;;;5072901;28;20213;-63
2021/09/09 09:39:34;;;;;;;6.20;5.28;;;27.50;94.50;;;;;;5072111;28;20726;-63
2021/09/09 09:42:04;;;;;;;11.07;6.00;;;27.50;94.50;;;;;;5072276;28;20205;-64
2021/09/09 09:44:33;;;;;;;11.80;8.00;;;27.60;94.10;;;;;;5072643;28;20209;-64
2021/09/09 09:47:11;;;;;;;7.57;5.78;;;27.70;93.60;;;;;;5071921;28;20703;-61
2021/09/09 09:49:42;;;;;;;6.32;4.78;;;27.90;94.10;;;;;;5071874;28;20237;-61
2021/09/09 09:52:09;;;;;;;7.50;5.55;;;28.30;93.40;;;;;;5071827;28;20205;-62
2021/09/09 09:54:37;;;;;;;9.18;5.68;;;28.60;92.50;;;;;;5071678;28;20215;-62
2021/09/09 09:57:05;;;;;;;7.70;5.20;;;28.80;92.40;;;;;;5071545;28;20205;-62
2021/09/09 09:59:32;;;;;;;6.43;5.00;;;29.00;92.10;;;;;;5071506;28;20209;-61
2021/09/09 10:02:00;;;;;;;5.75;5.10;;;29.00;92.10;;;;;;5071441;28;20224;-62
2021/09/09 10:04:28;;;;;;;7.18;5.00;;;29.00;92.30;;;;;;5071560;28;20209;-62
2021/09/09 10:06:56;;;;;;;6.35;5.25;;;29.00;92.30;;;;;;5071961;28;20262;-62
2021/09/09 10:09:22;;;;;;;7.60;5.10;;;28.90;92.10;;;;;;5071816;28;20258;-61
2021/09/09 10:11:51;;;;;;;7.88;5.32;;;28.90;91.70;;;;;;5071723;28;20207;-61
2021/09/09 10:14:23;;;;;;;7.13;4.82;;;28.90;91.70;;;;;;5071550;28;20676;-61
2021/09/09 10:16:53;;;;;;;7.95;5.05;;;28.90;91.30;;;;;;5071392;28;20209;-61
2021/09/09 10:19:29;;;;;;;8.10;4.82;;;29.00;91.20;;;;;;5070805;28;20568;-61
2021/09/09 10:22:08;;;;;;;8.35;5.05;;;29.10;91.00;;;;;;5070570;28;20235;-61
2021/09/09 10:24:36;;;;;;;10.40;6.43;;;29.20;90.70;;;;;;5071029;28;20208;-61
2021/09/09 10:27:18;;;;;;;7.97;6.28;;;29.30;90.60;;;;;;5070775;28;20640;-61
2021/09/09 10:29:47;;;;;;;10.88;5.93;;;29.50;90.50;;;;;;5071224;28;20286;-61
2021/09/09 10:32:54;;;;;;;10.43;5.65;;;29.60;90.30;;;;;;5071400;28;20205;-61
2021/09/09 10:35:32;;;;;;;7.72;6.57;;;29.60;90.00;;;;;;5070994;28;20649;-61
2021/09/09 10:38:29;;;;;;;5.82;4.88;;;29.70;89.50;;;;;;5071036;28;20295;-61
2021/09/09 10:40:59;;;;;;;7.47;5.55;;;29.80;88.30;;;;;;5070961;28;20248;-61
2021/09/09 10:43:47;;;;;;;7.75;5.03;;;29.80;88.80;;;;;;5070396;28;20232;-62
2021/09/09 10:46:14;;;;;;;5.60;4.93;;;30.00;88.90;;;;;;5070810;28;20211;-61
2021/09/09 10:48:43;;;;;;;8.27;4.82;;;30.40;87.00;;;;;;5070546;28;20293;-61
2021/09/09 10:51:12;;;;;;;6.43;4.68;;;30.90;84.90;;;;;;5070752;28;20232;-61
2021/09/09 10:53:40;;;;;;;7.95;5.03;;;31.20;83.80;;;;;;5070443;28;20669;-61
2021/09/09 10:56:11;;;;;;;7.53;5.50;;;31.50;82.70;;;;;;5070926;28;20200;-61
2021/09/09 10:58:38;;;;;;;7.65;5.13;;;31.60;83.20;;;;;;5071024;28;20212;-61
2021/09/09 11:01:08;;;;;;;7.65;5.05;;;31.60;83.00;;;;;;5071212;28;20309;-62
2021/09/09 11:03:40;;;;;;;9.75;4.50;;;31.70;82.50;;;;;;5071511;28;20209;-61
2021/09/09 11:06:08;;;;;;;7.50;4.78;;;31.60;82.70;;;;;;5071382;28;20235;-61
2021/09/09 11:08:35;;;;;;;7.97;5.05;;;31.40;82.70;;;;;;5070505;28;20213;-62
2021/09/09 11:11:04;;;;;;;7.07;4.63;;;31.30;83.70;;;;;;5070804;28;20588;-63
2021/09/09 11:13:33;;;;;;;6.90;4.53;;;31.30;82.90;;;;;;5070660;28;20205;-61
2021/09/09 11:16:00;;;;;;;6.38;4.97;;;31.20;83.40;;;;;;5071058;28;20772;-61
2021/09/09 11:18:30;;;;;;;8.63;4.90;;;31.20;83.70;;;;;;5070776;28;20213;-62
2021/09/09 11:21:05;;;;;;;10.27;5.30;;;31.00;84.60;;;;;;5071039;28;20229;-62
2021/09/09 11:23:33;;;;;;;10.23;4.60;;;31.10;84.20;;;;;;5071491;28;20211;-62
2021/09/09 11:26:10;;;;;;;9.32;5.15;;;31.10;84.30;;;;;;5071268;28;20209;-63
2021/09/09 11:28:37;;;;;;;7.55;4.55;;;31.00;83.90;;;;;;5070673;28;20244;-62
2021/09/09 11:31:08;;;;;;;7.85;4.85;;;31.00;85.00;;;;;;5070864;28;20233;-61
2021/09/09 11:33:49;;;;;;;11.98;5.38;;;30.90;84.90;;;;;;5074278;28;20287;-61
2021/09/09 11:36:16;;;;;;;6.60;5.50;;;30.70;85.70;;;;;;5074349;28;20250;-62
2021/09/09 11:38:43;;;;;;;6.22;5.47;;;30.50;86.10;;;;;;5074172;28;20204;-62
2021/09/09 11:41:11;;;;;;;5.50;4.70;;;30.50;86.20;;;;;;5073972;28;20233;-62
2021/09/09 11:43:39;;;;;;;5.65;4.50;;;30.60;86.20;;;;;;5074291;28;20201;-62
2021/09/09 11:46:06;;;;;;;7.07;4.80;;;30.60;85.50;;;;;;5074006;28;20258;-62
2021/09/09 11:48:32;;;;;;;5.72;4.75;;;30.60;86.10;;;;;;5074175;28;20296;-61
2021/09/09 11:51:00;;;;;;;5.45;4.60;;;30.60;84.60;;;;;;5074062;28;20275;-62
2021/09/09 11:53:27;;;;;;;6.55;4.55;;;30.70;84.70;;;;;;5074642;28;20216;-62
2021/09/09 11:55:55;;;;;;;11.05;5.00;;;30.60;83.60;;;;;;5074472;28;20205;-62
2021/09/09 11:58:33;;;;;;;7.72;4.50;;;30.50;83.70;;;;;;5074311;28;20205;-62
2021/09/09 12:01:01;;;;;;;5.00;4.30;;;30.50;84.00;;;;;;5074404;28;20225;-62
2021/09/09 12:03:28;;;;;;;5.38;4.60;;;30.60;83.90;;;;;;5074486;28;20236;-62
2021/09/09 12:05:56;;;;;;;7.32;4.45;;;30.80;83.20;;;;;;5074552;28;20201;-61
2021/09/09 12:08:25;;;;;;;9.32;5.28;;;31.00;83.00;;;;;;5074473;28;20217;-61
2021/09/09 12:10:52;;;;;;;7.45;4.50;;;31.20;82.50;;;;;;5074530;28;20273;-61
2021/09/09 12:13:30;;;;;;;7.32;4.57;;;31.40;81.50;;;;;;5074135;28;20212;-62
2021/09/09 12:16:13;;;;;;;8.00;4.85;;;31.30;81.80;;;;;;5074335;28;20741;-62
2021/09/09 12:18:39;;;;;;;8.63;5.57;;;31.50;81.50;;;;;;5074198;28;20592;-62
2021/09/09 12:21:11;;;;;;;11.50;5.25;;;31.70;80.50;;;;;;5074004;28;20252;-61
2021/09/09 12:23:39;;;;;;;8.32;4.75;;;31.90;79.50;;;;;;5073389;28;20688;-62
2021/09/09 12:26:17;;;;;;;7.68;4.65;;;32.10;78.80;;;;;;5073988;28;20227;-62
2021/09/09 12:28:44;;;;;;;5.47;4.38;;;32.10;77.80;;;;;;5073815;28;20204;-61
2021/09/09 12:31:11;;;;;;;6.38;4.25;;;32.10;76.70;;;;;;5073433;28;20755;-61
2021/09/09 12:33:40;;;;;;;5.50;3.80;;;32.30;76.20;;;;;;5073608;28;20336;-61
2021/09/09 12:36:09;;;;;;;6.30;4.13;;;32.40;76.40;;;;;;5073497;28;20664;-62
2021/09/09 12:38:41;;;;;;;4.93;4.07;;;32.50;76.60;;;;;;5073814;28;20342;-62
2021/09/09 12:41:08;;;;;;;5.97;3.97;;;32.50;76.10;;;;;;5073226;28;20224;-62
2021/09/09 12:43:38;;;;;;;4.63;3.92;;;32.60;76.20;;;;;;5072188;28;20228;-61
2021/09/09 12:46:05;;;;;;;10.05;4.80;;;32.70;75.70;;;;;;5073934;28;20205;-63
2021/09/09 12:48:34;;;;;;;4.10;3.67;;;32.80;75.90;;;;;;5073034;28;20217;-61